Time;durP1;ratioP1;P1;durP2;ratioP2;P2;SDS_P1;SDS_P2;PMS_P1;PMS_P2;Temp;Humidity;BMP_temperature;BMP_pressure;BME280_temperature;BME280_humidity;BME280_pressure;Samples;Min_cycle;Max_cycle;Signal;HPM_P1;HPM_P2
2021/07/02 00:01:25;;;;;;;7.15;6.40;;;16.30;99.90;;;;;;5134672;27;20068;-76
2021/07/02 00:03:50;;;;;;;7.85;6.13;;;16.30;99.90;;;;;;5134890;27;20019;-76
2021/07/02 00:06:16;;;;;;;7.95;6.25;;;16.20;99.90;;;;;;5134902;27;20095;-76
2021/07/02 00:08:42;;;;;;;8.05;6.13;;;16.20;99.90;;;;;;5136273;27;20023;-77
2021/07/02 00:11:08;;;;;;;9.55;5.90;;;16.10;99.90;;;;;;5134689;27;20075;-77
2021/07/02 00:13:34;;;;;;;7.15;6.45;;;16.10;99.90;;;;;;5134794;27;20035;-77
2021/07/02 00:16:00;;;;;;;8.52;7.50;;;16.10;99.90;;;;;;5135933;27;20370;-77
2021/07/02 00:18:25;;;;;;;6.15;5.50;;;16.00;99.90;;;;;;5135694;27;20027;-76
2021/07/02 00:20:51;;;;;;;10.02;6.13;;;16.00;99.90;;;;;;5134670;27;20035;-77
2021/07/02 00:23:17;;;;;;;7.07;6.38;;;16.00;99.90;;;;;;5125045;27;20025;-76
2021/07/02 00:25:43;;;;;;;7.55;6.00;;;16.00;99.90;;;;;;5134629;27;20096;-76
2021/07/02 00:28:08;;;;;;;7.13;6.43;;;16.00;99.90;;;;;;5135713;27;20392;-77
2021/07/02 00:30:36;;;;;;;10.13;7.10;;;16.00;99.90;;;;;;5134444;27;20373;-76
2021/07/02 00:33:02;;;;;;;8.25;7.35;;;16.00;99.90;;;;;;5135303;27;20031;-76
2021/07/02 00:35:28;;;;;;;7.38;6.68;;;16.10;99.90;;;;;;5134380;27;20503;-77
2021/07/02 00:37:53;;;;;;;9.35;7.93;;;16.10;99.90;;;;;;5135854;27;20046;-77
2021/07/02 00:40:19;;;;;;;7.80;6.88;;;16.10;99.90;;;;;;5134346;27;20506;-77
2021/07/02 00:42:45;;;;;;;9.10;7.00;;;16.00;99.90;;;;;;5134161;27;20035;-76
2021/07/02 00:45:11;;;;;;;8.35;7.43;;;16.10;99.90;;;;;;5115378;27;20032;-77
2021/07/02 00:47:37;;;;;;;10.23;6.88;;;16.10;99.90;;;;;;5094516;28;20077;-76
2021/07/02 00:50:06;;;;;;;8.90;7.38;;;16.10;99.90;;;;;;5093108;28;20027;-76
2021/07/02 00:52:32;;;;;;;8.13;7.13;;;16.10;99.90;;;;;;5094054;28;20032;-77
2021/07/02 00:54:58;;;;;;;8.25;6.57;;;16.10;99.90;;;;;;5094339;28;20099;-77
2021/07/02 00:57:24;;;;;;;8.90;7.55;;;16.10;99.90;;;;;;5092962;28;20082;-76
2021/07/02 00:59:50;;;;;;;8.10;7.30;;;16.10;99.90;;;;;;5094299;28;20031;-76
2021/07/02 01:02:16;;;;;;;8.25;7.45;;;16.10;99.90;;;;;;5093964;28;20032;-76
2021/07/02 01:04:42;;;;;;;8.38;7.50;;;16.10;99.90;;;;;;5092974;28;20380;-76
2021/07/02 01:07:11;;;;;;;8.18;7.10;;;16.00;99.90;;;;;;5094046;28;20032;-76
2021/07/02 01:09:37;;;;;;;8.70;6.70;;;16.00;99.90;;;;;;5094056;28;20020;-76
2021/07/02 01:12:03;;;;;;;10.45;7.72;;;16.00;99.90;;;;;;5092552;28;20038;-77
2021/07/02 01:14:29;;;;;;;8.38;7.05;;;15.90;99.90;;;;;;5095683;28;20023;-78
2021/07/02 01:16:58;;;;;;;8.30;7.18;;;15.80;99.90;;;;;;5116155;27;20032;-76
2021/07/02 01:19:24;;;;;;;9.57;7.57;;;15.80;99.90;;;;;;5112991;28;20015;-76
2021/07/02 01:21:53;;;;;;;9.05;7.35;;;15.70;99.90;;;;;;5112803;28;20106;-76
2021/07/02 01:24:19;;;;;;;8.65;6.88;;;15.70;99.90;;;;;;5114103;28;20064;-76
2021/07/02 01:26:45;;;;;;;10.10;7.32;;;15.60;99.90;;;;;;5112871;28;20114;-76
2021/07/02 01:29:10;;;;;;;9.02;7.30;;;15.60;99.90;;;;;;5112779;28;20019;-77
2021/07/02 01:31:36;;;;;;;8.25;7.40;;;15.60;99.90;;;;;;5112719;28;20539;-76
2021/07/02 01:34:01;;;;;;;9.73;8.05;;;15.50;99.90;;;;;;5113940;28;20048;-76
2021/07/02 01:36:27;;;;;;;9.25;8.15;;;15.60;99.90;;;;;;5113996;28;20023;-76
2021/07/02 01:38:53;;;;;;;9.25;7.22;;;15.50;99.90;;;;;;5113944;28;20030;-77
2021/07/02 01:41:18;;;;;;;10.43;7.88;;;15.50;99.90;;;;;;5112537;28;20019;-76
2021/07/02 01:43:45;;;;;;;8.13;7.10;;;15.40;99.90;;;;;;5111940;28;20118;-76
2021/07/02 01:46:10;;;;;;;10.98;8.15;;;15.50;99.90;;;;;;5094908;28;20370;-76
2021/07/02 01:48:36;;;;;;;9.23;8.23;;;15.40;99.90;;;;;;5092153;28;20027;-76
2021/07/02 01:51:02;;;;;;;9.50;7.63;;;15.40;99.90;;;;;;5092032;28;20452;-76
2021/07/02 01:53:29;;;;;;;9.82;8.13;;;15.40;99.90;;;;;;5092066;28;20020;-76
2021/07/02 01:55:55;;;;;;;9.80;7.72;;;15.40;99.90;;;;;;5093123;28;20462;-76
2021/07/02 01:58:20;;;;;;;9.15;8.00;;;15.30;99.90;;;;;;5093312;28;20078;-76
2021/07/02 02:00:46;;;;;;;9.55;8.55;;;15.30;99.90;;;;;;5112274;28;20015;-76
2021/07/02 02:03:12;;;;;;;9.05;7.55;;;15.30;99.90;;;;;;5112179;28;20126;-76
2021/07/02 02:05:38;;;;;;;11.38;8.75;;;15.30;99.90;;;;;;5112185;28;20027;-76
2021/07/02 02:08:04;;;;;;;11.00;9.02;;;15.30;99.90;;;;;;5113422;28;20032;-76
2021/07/02 02:10:30;;;;;;;17.98;10.38;;;15.30;99.90;;;;;;5095442;28;20054;-76
2021/07/02 02:12:57;;;;;;;10.27;9.00;;;15.30;99.90;;;;;;5113344;28;20070;-77
2021/07/02 02:15:23;;;;;;;10.57;8.25;;;15.10;99.90;;;;;;5102878;28;20024;-76
2021/07/02 02:17:49;;;;;;;9.93;8.23;;;15.10;99.90;;;;;;5091709;28;20020;-76
2021/07/02 02:20:15;;;;;;;9.90;8.73;;;14.90;99.90;;;;;;5091669;28;20032;-76
2021/07/02 02:22:40;;;;;;;9.80;8.55;;;14.90;99.90;;;;;;5092882;28;20039;-77
2021/07/02 02:25:07;;;;;;;14.43;9.10;;;14.80;99.90;;;;;;5091658;28;20054;-77
2021/07/02 02:27:34;;;;;;;9.55;7.85;;;14.80;99.90;;;;;;5093251;28;20032;-77
2021/07/02 02:30:00;;;;;;;9.07;7.93;;;14.80;99.90;;;;;;5091602;28;20027;-76
2021/07/02 02:32:26;;;;;;;10.50;8.63;;;14.80;99.90;;;;;;5092919;28;20028;-76
2021/07/02 02:34:51;;;;;;;11.70;8.75;;;14.80;99.90;;;;;;5091665;28;20465;-76
2021/07/02 02:37:17;;;;;;;9.43;8.45;;;14.80;99.90;;;;;;5092688;28;20020;-76
2021/07/02 02:39:43;;;;;;;11.38;8.90;;;14.80;99.90;;;;;;5092881;28;20100;-76
2021/07/02 02:42:08;;;;;;;10.25;9.00;;;14.90;99.90;;;;;;5091372;28;20500;-76
2021/07/02 02:44:34;;;;;;;14.35;9.77;;;14.80;99.90;;;;;;5111112;28;20498;-77
2021/07/02 02:47:00;;;;;;;12.13;8.80;;;14.80;99.90;;;;;;5111483;28;20169;-76
2021/07/02 02:49:25;;;;;;;11.45;9.23;;;14.80;99.90;;;;;;5111783;28;20024;-76
2021/07/02 02:51:51;;;;;;;11.90;9.95;;;14.80;99.90;;;;;;5111748;28;20026;-76
2021/07/02 02:54:17;;;;;;;11.90;9.43;;;14.90;99.90;;;;;;5113026;28;20098;-77
2021/07/02 02:59:27;;;;;;;10.40;9.00;;;14.90;99.90;;;;;;5117043;28;20057;-77
2021/07/02 03:01:52;;;;;;;11.43;9.90;;;14.90;99.90;;;;;;5115091;28;20058;-77
2021/07/02 03:04:18;;;;;;;12.88;9.55;;;15.00;99.90;;;;;;5116581;28;20425;-77
2021/07/02 03:06:44;;;;;;;11.52;9.75;;;15.10;99.90;;;;;;5115636;28;20031;-76
2021/07/02 03:09:09;;;;;;;12.57;9.80;;;15.00;99.90;;;;;;5116813;28;20413;-76
2021/07/02 03:11:35;;;;;;;13.70;9.93;;;15.00;99.90;;;;;;5115249;28;20063;-76
2021/07/02 03:14:01;;;;;;;15.73;10.73;;;15.10;99.90;;;;;;5116684;28;20423;-77
2021/07/02 03:16:26;;;;;;;13.68;10.60;;;15.20;99.90;;;;;;5115347;28;20491;-76
2021/07/02 03:18:52;;;;;;;10.95;9.63;;;15.10;99.90;;;;;;5116393;28;20102;-77
2021/07/02 03:21:17;;;;;;;12.70;10.02;;;15.20;99.90;;;;;;5116509;27;20031;-76
2021/07/02 03:23:43;;;;;;;12.07;10.20;;;15.30;99.90;;;;;;5115264;28;20035;-77
2021/07/02 03:26:09;;;;;;;12.13;10.75;;;15.30;99.90;;;;;;5097358;28;20028;-76
2021/07/02 03:28:35;;;;;;;12.27;10.98;;;15.30;99.90;;;;;;5094717;28;20032;-76
2021/07/02 03:31:02;;;;;;;12.65;10.15;;;15.30;99.90;;;;;;5095949;28;20039;-76
2021/07/02 03:33:27;;;;;;;13.20;9.10;;;15.30;99.90;;;;;;5094648;28;20016;-76
2021/07/02 03:35:53;;;;;;;11.65;9.05;;;15.30;99.90;;;;;;5095795;28;20027;-76
2021/07/02 03:38:19;;;;;;;11.60;9.85;;;15.40;99.90;;;;;;5095873;28;20024;-76
2021/07/02 03:40:45;;;;;;;11.50;9.57;;;15.40;99.90;;;;;;5095813;28;20603;-76
2021/07/02 03:43:10;;;;;;;12.13;10.35;;;15.50;99.90;;;;;;5094380;28;20032;-76
2021/07/02 03:45:36;;;;;;;11.00;9.43;;;15.50;99.90;;;;;;5095696;28;20020;-76
2021/07/02 03:48:02;;;;;;;12.73;9.20;;;15.50;99.90;;;;;;5094315;28;20036;-77
2021/07/02 03:50:28;;;;;;;13.63;9.65;;;15.50;99.90;;;;;;5095635;28;20028;-77
2021/07/02 03:52:53;;;;;;;13.77;9.57;;;15.50;99.90;;;;;;5094007;28;20024;-76
2021/07/02 03:55:19;;;;;;;13.50;8.88;;;15.50;99.90;;;;;;5104228;28;20027;-77
2021/07/02 03:57:45;;;;;;;10.48;8.52;;;15.60;99.90;;;;;;5115861;28;20012;-76
2021/07/02 04:00:11;;;;;;;13.07;8.95;;;15.60;99.90;;;;;;5115781;28;20024;-76
2021/07/02 04:02:36;;;;;;;14.40;9.90;;;15.70;99.90;;;;;;5114344;28;20083;-76
2021/07/02 04:05:02;;;;;;;13.07;9.43;;;15.70;99.90;;;;;;5114438;28;20473;-77
2021/07/02 04:07:28;;;;;;;11.45;9.15;;;15.70;99.90;;;;;;5113577;28;20125;-76
2021/07/02 04:09:54;;;;;;;10.73;9.45;;;15.80;99.90;;;;;;5115685;28;20023;-76
2021/07/02 04:12:20;;;;;;;11.30;8.93;;;15.80;99.90;;;;;;5114181;28;20031;-76
2021/07/02 04:14:45;;;;;;;14.23;10.13;;;15.90;99.90;;;;;;5115660;28;20019;-76
2021/07/02 04:17:11;;;;;;;11.90;8.68;;;15.90;99.90;;;;;;5114037;28;20136;-76
2021/07/02 04:19:37;;;;;;;13.05;8.48;;;16.00;99.90;;;;;;5115477;27;20431;-76
2021/07/02 04:22:06;;;;;;;11.73;7.65;;;16.00;99.90;;;;;;5114007;27;20031;-76
2021/07/02 04:24:32;;;;;;;11.63;7.95;;;16.00;99.90;;;;;;5112920;28;20024;-76
2021/07/02 04:26:58;;;;;;;10.50;7.03;;;16.00;99.90;;;;;;5094934;28;20030;-76
2021/07/02 04:29:24;;;;;;;8.02;6.80;;;16.00;99.90;;;;;;5093614;28;20035;-77
2021/07/02 04:31:50;;;;;;;8.13;6.63;;;16.00;99.90;;;;;;5094709;28;20107;-76
2021/07/02 04:34:16;;;;;;;9.27;6.05;;;15.90;99.90;;;;;;5093347;28;20118;-78
2021/07/02 04:36:42;;;;;;;8.18;5.93;;;15.90;99.90;;;;;;5093382;28;20052;-76
2021/07/02 04:39:08;;;;;;;7.07;5.93;;;16.00;99.90;;;;;;5094576;28;20381;-77
2021/07/02 04:41:33;;;;;;;6.15;5.25;;;16.00;99.90;;;;;;5093235;28;20064;-76
2021/07/02 04:43:59;;;;;;;9.63;6.13;;;15.90;99.90;;;;;;5099134;28;20027;-76
2021/07/02 04:46:25;;;;;;;7.60;5.28;;;15.90;99.90;;;;;;5113610;28;20035;-76
2021/07/02 04:48:50;;;;;;;7.45;5.70;;;16.00;99.90;;;;;;5113696;28;20015;-76
2021/07/02 04:51:34;;;;;;;6.00;4.80;;;15.90;99.90;;;;;;5114595;28;20027;-76
2021/07/02 04:54:00;;;;;;;5.72;5.05;;;16.00;99.90;;;;;;5108814;28;20023;-76
2021/07/02 04:56:26;;;;;;;6.05;4.68;;;16.10;99.90;;;;;;5113270;28;20042;-76
2021/07/02 04:58:54;;;;;;;6.07;5.05;;;16.20;99.90;;;;;;5111863;28;20016;-76
2021/07/02 05:01:22;;;;;;;6.05;4.55;;;16.40;99.90;;;;;;5110150;28;20497;-77
2021/07/02 05:03:47;;;;;;;6.20;4.53;;;16.60;99.90;;;;;;5111134;28;20059;-76
2021/07/02 05:06:13;;;;;;;4.82;4.28;;;16.70;99.90;;;;;;5097263;28;20500;-77
2021/07/02 05:08:39;;;;;;;6.68;4.43;;;16.80;99.90;;;;;;5090839;28;20038;-77
2021/07/02 05:11:05;;;;;;;4.40;4.00;;;16.90;99.90;;;;;;5101069;28;20105;-76
2021/07/02 05:13:34;;;;;;;6.47;4.32;;;16.90;99.90;;;;;;5105885;28;20482;-77
2021/07/02 05:15:59;;;;;;;7.88;4.35;;;17.00;99.90;;;;;;5112976;28;20073;-76
2021/07/02 05:18:25;;;;;;;5.53;4.43;;;16.80;99.90;;;;;;5111822;28;20019;-77
2021/07/02 05:20:51;;;;;;;5.13;3.38;;;16.70;99.90;;;;;;5113339;28;20590;-76
2021/07/02 05:23:16;;;;;;;4.47;4.07;;;16.60;99.90;;;;;;5092394;28;20078;-77
2021/07/02 05:25:42;;;;;;;5.82;3.47;;;16.80;99.90;;;;;;5093770;28;20020;-76
2021/07/02 05:28:07;;;;;;;6.30;4.57;;;16.80;99.90;;;;;;5092397;28;20482;-77
2021/07/02 05:30:33;;;;;;;4.75;3.58;;;16.90;99.90;;;;;;5092314;28;20045;-76
2021/07/02 05:32:59;;;;;;;3.97;3.58;;;16.90;99.90;;;;;;5108802;28;20024;-76
2021/07/02 05:35:25;;;;;;;5.20;3.60;;;17.00;99.90;;;;;;5103258;28;20030;-77
2021/07/02 05:37:50;;;;;;;3.60;3.30;;;16.90;99.90;;;;;;5112761;28;20027;-77
2021/07/02 05:40:17;;;;;;;4.07;3.78;;;16.90;99.90;;;;;;5111317;28;20023;-76
2021/07/02 05:42:43;;;;;;;3.60;3.30;;;17.00;99.90;;;;;;5110103;28;20032;-77
2021/07/02 05:45:10;;;;;;;3.33;3.03;;;17.10;99.70;;;;;;5112000;28;20099;-77
2021/07/02 05:47:50;;;;;;;3.10;2.80;;;17.20;99.00;;;;;;5100728;28;20023;-77
2021/07/02 05:50:18;;;;;;;4.07;3.38;;;17.20;98.70;;;;;;5108446;28;20073;-76
2021/07/02 05:52:44;;;;;;;4.13;3.10;;;17.20;98.10;;;;;;5110979;28;20020;-77
2021/07/02 05:55:12;;;;;;;6.00;3.20;;;17.30;96.90;;;;;;5111626;28;20015;-77
2021/07/02 05:57:37;;;;;;;2.75;2.55;;;17.40;96.80;;;;;;5111690;28;20115;-76
2021/07/02 06:00:05;;;;;;;4.13;3.03;;;17.40;95.60;;;;;;5111701;28;20047;-77
2021/07/02 06:02:31;;;;;;;6.65;2.90;;;17.30;96.70;;;;;;5105797;28;20089;-76
2021/07/02 06:04:56;;;;;;;4.35;3.47;;;17.40;97.10;;;;;;5103058;28;20426;-80
2021/07/02 06:07:22;;;;;;;3.80;2.83;;;17.50;95.10;;;;;;5112566;28;20019;-79
2021/07/02 06:09:47;;;;;;;3.75;3.35;;;17.70;92.90;;;;;;5112323;28;20411;-79
2021/07/02 06:12:13;;;;;;;3.10;2.90;;;17.70;93.80;;;;;;5099140;28;20035;-79
2021/07/02 06:14:39;;;;;;;2.80;2.60;;;17.60;94.00;;;;;;5107249;28;20038;-79
2021/07/02 06:17:04;;;;;;;3.65;3.33;;;17.50;95.20;;;;;;5110415;28;20074;-79
2021/07/02 06:19:30;;;;;;;5.43;4.03;;;17.70;93.00;;;;;;5111183;28;20048;-81
2021/07/02 06:21:56;;;;;;;3.75;3.20;;;17.60;93.40;;;;;;5110540;28;20035;-79
2021/07/02 06:24:21;;;;;;;2.92;2.63;;;17.60;92.50;;;;;;5110212;28;20499;-79
2021/07/02 06:26:47;;;;;;;5.38;3.40;;;17.70;92.50;;;;;;5109913;28;20380;-78
2021/07/02 06:29:13;;;;;;;4.32;3.30;;;17.80;92.60;;;;;;5099979;28;20035;-79
2021/07/02 06:31:38;;;;;;;4.72;3.65;;;17.80;92.50;;;;;;5110877;27;20115;-79
2021/07/02 06:34:04;;;;;;;2.95;2.70;;;17.90;92.40;;;;;;5097038;28;20056;-79
2021/07/02 06:36:30;;;;;;;5.03;3.08;;;18.10;90.80;;;;;;5094721;28;20024;-79
2021/07/02 06:38:55;;;;;;;3.72;3.20;;;18.20;88.80;;;;;;5093898;28;20013;-79
2021/07/02 06:41:21;;;;;;;4.72;3.55;;;18.40;88.70;;;;;;5095051;28;20373;-79
2021/07/02 06:43:46;;;;;;;3.65;3.35;;;18.40;89.80;;;;;;5093507;28;20028;-79
2021/07/02 06:46:13;;;;;;;4.38;3.22;;;18.50;90.10;;;;;;5094354;28;20111;-79
2021/07/02 06:48:38;;;;;;;4.53;4.13;;;18.40;86.60;;;;;;5093476;28;20460;-79
2021/07/02 06:51:04;;;;;;;4.57;3.97;;;18.40;86.40;;;;;;5093443;28;20118;-79
2021/07/02 06:53:30;;;;;;;4.43;4.03;;;18.40;86.30;;;;;;5095668;28;20035;-79
2021/07/02 06:55:56;;;;;;;4.82;4.13;;;18.40;87.90;;;;;;5097014;28;20439;-79
2021/07/02 06:58:21;;;;;;;5.03;4.53;;;18.40;86.20;;;;;;5096688;28;20099;-79
2021/07/02 07:00:48;;;;;;;4.22;3.83;;;18.30;86.50;;;;;;5096609;28;20466;-79
2021/07/02 07:03:14;;;;;;;5.78;4.18;;;18.50;85.60;;;;;;5095196;28;20074;-79
2021/07/02 07:05:40;;;;;;;6.90;4.03;;;18.70;85.50;;;;;;5096165;28;20016;-79
2021/07/02 07:08:08;;;;;;;5.00;4.10;;;18.80;85.70;;;;;;5117041;28;20417;-79
2021/07/02 07:10:35;;;;;;;8.30;4.78;;;18.90;84.40;;;;;;5116665;28;20055;-79
2021/07/02 07:13:02;;;;;;;4.90;3.97;;;18.90;85.20;;;;;;5116973;28;20054;-79
2021/07/02 07:15:29;;;;;;;6.28;4.32;;;18.80;85.40;;;;;;5116174;28;20504;-79
2021/07/02 07:17:55;;;;;;;5.15;3.85;;;19.00;84.30;;;;;;5116652;28;20024;-79
2021/07/02 07:20:21;;;;;;;6.53;3.95;;;19.20;85.10;;;;;;5115375;28;20123;-79
2021/07/02 07:22:47;;;;;;;7.00;3.90;;;19.30;84.20;;;;;;5116482;28;20106;-79
2021/07/02 07:25:14;;;;;;;6.22;3.75;;;19.10;83.20;;;;;;5115221;28;20016;-79
2021/07/02 07:27:42;;;;;;;3.95;3.65;;;19.20;82.30;;;;;;5102258;28;20020;-79
2021/07/02 07:30:08;;;;;;;5.13;3.25;;;19.30;82.40;;;;;;5096023;28;20481;-79
2021/07/02 07:32:36;;;;;;;4.72;3.90;;;19.50;81.60;;;;;;5095895;28;20028;-79
2021/07/02 07:35:05;;;;;;;4.57;4.18;;;19.40;80.30;;;;;;5095942;28;20515;-79
2021/07/02 07:37:34;;;;;;;3.67;3.38;;;19.60;81.50;;;;;;5094863;28;20031;-79
2021/07/02 07:40:00;;;;;;;3.83;3.42;;;19.50;76.60;;;;;;5095847;28;20066;-79
2021/07/02 07:42:26;;;;;;;3.88;3.55;;;19.40;77.20;;;;;;5094622;28;20035;-79
2021/07/02 07:44:51;;;;;;;3.88;3.53;;;19.20;78.80;;;;;;5094515;28;20178;-79
2021/07/02 07:47:17;;;;;;;3.10;2.90;;;19.50;78.10;;;;;;5095474;28;20381;-79
2021/07/02 07:49:44;;;;;;;4.00;3.60;;;19.80;77.90;;;;;;5094468;28;20024;-79
2021/07/02 07:54:36;;;;;;;3.28;3.00;;;19.70;76.00;;;;;;5116348;28;20027;-79
2021/07/02 07:57:02;;;;;;;5.32;3.20;;;20.00;73.80;;;;;;5114614;28;20377;-79
2021/07/02 07:59:29;;;;;;;7.10;3.60;;;20.10;73.90;;;;;;5116216;28;20020;-79
2021/07/02 08:01:55;;;;;;;3.25;2.95;;;20.20;73.50;;;;;;5115689;28;20060;-79
2021/07/02 08:04:21;;;;;;;3.55;3.25;;;20.20;73.70;;;;;;5114826;28;20024;-79
2021/07/02 08:06:47;;;;;;;3.60;2.90;;;20.00;74.30;;;;;;5115844;28;20034;-79
2021/07/02 08:09:14;;;;;;;4.22;2.75;;;19.80;72.30;;;;;;5114433;28;20050;-79
2021/07/02 08:11:40;;;;;;;4.32;3.28;;;19.90;74.50;;;;;;5114442;28;20027;-79
2021/07/02 08:14:07;;;;;;;2.80;2.60;;;20.00;72.20;;;;;;5115857;28;20475;-79
2021/07/02 08:16:34;;;;;;;4.07;3.22;;;20.10;72.10;;;;;;5114287;28;20051;-79
2021/07/02 08:19:00;;;;;;;5.82;3.10;;;20.60;74.50;;;;;;5115478;28;20081;-80
2021/07/02 08:21:26;;;;;;;3.28;2.90;;;20.50;69.70;;;;;;5115462;28;20477;-79
2021/07/02 08:23:51;;;;;;;3.45;2.33;;;20.30;69.80;;;;;;5113610;28;20489;-79
2021/07/02 08:26:18;;;;;;;3.33;3.03;;;20.00;70.90;;;;;;5114068;28;20023;-79
2021/07/02 08:31:28;;;;;;;4.22;3.85;;;19.70;74.70;;;;;;5115442;28;20389;-79
2021/07/02 08:33:54;;;;;;;3.97;3.25;;;19.60;75.10;;;;;;5115301;27;20057;-79
2021/07/02 08:36:20;;;;;;;3.55;3.25;;;19.70;76.20;;;;;;5113811;28;20028;-79
2021/07/02 08:38:45;;;;;;;3.40;3.10;;;19.60;75.70;;;;;;5113951;28;20031;-79
2021/07/02 08:41:13;;;;;;;5.70;3.05;;;19.60;75.30;;;;;;5114065;28;20027;-79
2021/07/02 08:43:45;;;;;;;3.53;3.13;;;19.60;75.80;;;;;;5113698;28;20028;-79
2021/07/02 08:46:16;;;;;;;4.75;3.10;;;19.90;74.30;;;;;;5114967;28;20598;-79
2021/07/02 08:48:45;;;;;;;3.50;2.95;;;20.00;70.90;;;;;;5115090;27;20023;-79
2021/07/02 08:51:11;;;;;;;5.35;2.95;;;20.20;69.90;;;;;;5114150;28;20380;-78
2021/07/02 08:53:38;;;;;;;3.15;2.85;;;20.30;69.10;;;;;;5094646;28;20020;-79
2021/07/02 08:56:04;;;;;;;4.18;2.80;;;20.70;69.80;;;;;;5093072;28;20032;-79
2021/07/02 08:58:31;;;;;;;2.85;2.63;;;21.00;66.70;;;;;;5094088;28;20020;-79
2021/07/02 09:00:57;;;;;;;3.53;3.22;;;21.10;65.30;;;;;;5092764;28;20423;-79
2021/07/02 09:03:30;;;;;;;3.05;2.85;;;20.80;67.90;;;;;;5092546;28;20397;-80
2021/07/02 09:06:14;;;;;;;3.40;3.10;;;20.80;68.50;;;;;;5093928;28;20024;-79
2021/07/02 09:08:56;;;;;;;6.43;3.70;;;20.60;68.50;;;;;;5091678;28;20024;-80
2021/07/02 09:11:27;;;;;;;3.70;3.00;;;20.80;69.90;;;;;;5094269;28;20034;-79
2021/07/02 09:13:53;;;;;;;3.85;3.20;;;20.90;68.60;;;;;;5093772;28;20473;-79
2021/07/02 09:16:23;;;;;;;3.22;2.92;;;21.10;68.20;;;;;;5093190;28;20024;-79
2021/07/02 09:18:49;;;;;;;3.50;3.13;;;21.20;65.20;;;;;;5118473;27;20052;-79
2021/07/02 09:21:30;;;;;;;4.05;3.67;;;21.30;64.80;;;;;;5133274;27;20027;-79
2021/07/02 09:23:58;;;;;;;5.32;3.38;;;21.40;65.30;;;;;;5133194;27;20031;-80
2021/07/02 09:26:39;;;;;;;3.40;2.80;;;21.50;65.00;;;;;;5134566;27;20545;-79
2021/07/02 09:29:26;;;;;;;3.35;3.08;;;21.90;65.20;;;;;;5133241;27;20030;-79
2021/07/02 09:32:03;;;;;;;4.40;3.28;;;21.80;63.00;;;;;;5134278;27;20023;-79
2021/07/02 09:34:50;;;;;;;4.20;3.05;;;22.00;65.30;;;;;;5134575;27;20023;-79
2021/07/02 09:37:43;;;;;;;3.50;3.20;;;22.20;64.90;;;;;;5133831;27;20019;-79
2021/07/02 09:40:21;;;;;;;4.72;3.53;;;21.90;66.20;;;;;;5132876;27;20496;-79
2021/07/02 09:43:01;;;;;;;3.58;3.28;;;21.80;65.40;;;;;;5134101;27;20050;-80
2021/07/02 09:45:27;;;;;;;4.07;3.50;;;21.50;64.20;;;;;;5133058;27;20022;-79
2021/07/02 09:47:54;;;;;;;3.78;3.22;;;21.60;63.90;;;;;;5127360;27;20050;-80
2021/07/02 09:50:20;;;;;;;3.97;3.08;;;21.50;62.70;;;;;;5117484;27;20031;-79
2021/07/02 09:53:01;;;;;;;3.17;2.97;;;21.90;63.80;;;;;;5132572;27;20023;-79
2021/07/02 09:55:31;;;;;;;3.40;3.10;;;21.90;61.60;;;;;;5130681;27;20027;-79
2021/07/02 09:58:04;;;;;;;3.10;2.80;;;21.70;60.70;;;;;;5131058;27;20023;-79
2021/07/02 10:00:32;;;;;;;3.60;3.33;;;21.90;61.80;;;;;;5130607;27;20491;-79
2021/07/02 10:03:00;;;;;;;4.28;3.17;;;22.10;65.00;;;;;;5131683;27;20039;-79
2021/07/02 10:05:26;;;;;;;3.03;2.83;;;22.00;64.30;;;;;;5130742;27;20030;-80
2021/07/02 10:08:00;;;;;;;4.78;3.03;;;22.00;63.60;;;;;;5130444;27;20072;-79
2021/07/02 10:10:27;;;;;;;2.80;2.60;;;21.90;62.20;;;;;;5133948;27;20101;-79
2021/07/02 10:12:54;;;;;;;3.83;2.63;;;21.70;61.80;;;;;;5133960;27;20468;-79
2021/07/02 10:15:21;;;;;;;2.78;2.53;;;21.70;62.50;;;;;;5103056;27;20024;-79
2021/07/02 10:17:47;;;;;;;4.50;2.90;;;21.90;63.20;;;;;;5091674;28;20473;-79
2021/07/02 10:20:15;;;;;;;2.40;2.20;;;22.10;63.10;;;;;;5091658;28;20020;-79
2021/07/02 10:22:42;;;;;;;3.20;2.53;;;22.10;61.40;;;;;;5092460;28;20464;-80
2021/07/02 10:25:10;;;;;;;3.22;2.92;;;22.00;61.20;;;;;;5091584;28;20473;-79
2021/07/02 10:27:38;;;;;;;3.28;2.97;;;22.00;60.60;;;;;;5091523;28;20035;-79
2021/07/02 10:30:04;;;;;;;3.03;2.40;;;22.20;61.50;;;;;;5092803;28;20024;-79
2021/07/02 10:32:33;;;;;;;3.53;3.17;;;22.40;61.70;;;;;;5092995;28;20512;-78
2021/07/02 10:34:59;;;;;;;2.92;2.67;;;22.60;61.70;;;;;;5092809;28;20016;-79
2021/07/02 10:37:26;;;;;;;3.50;3.20;;;22.80;61.60;;;;;;5092703;28;20055;-80
2021/07/02 10:39:53;;;;;;;2.35;2.20;;;22.70;60.60;;;;;;5092383;28;20012;-79
2021/07/02 10:42:18;;;;;;;2.70;2.50;;;22.70;60.40;;;;;;5092556;28;20481;-80
2021/07/02 10:44:53;;;;;;;3.47;3.08;;;22.60;59.80;;;;;;5092792;28;20032;-79
2021/07/02 10:47:23;;;;;;;7.50;2.47;;;22.40;58.90;;;;;;5091372;28;20021;-80
2021/07/02 10:49:50;;;;;;;3.00;2.80;;;22.40;59.70;;;;;;5091479;28;20073;-79
2021/07/02 10:52:26;;;;;;;4.03;2.65;;;22.00;60.60;;;;;;5092795;28;20088;-79
2021/07/02 10:54:54;;;;;;;3.75;2.70;;;22.10;61.20;;;;;;5091422;28;20052;-79
2021/07/02 10:57:22;;;;;;;3.03;2.55;;;22.10;61.70;;;;;;5093366;28;20020;-79
2021/07/02 10:59:51;;;;;;;2.38;2.22;;;22.40;60.40;;;;;;5092902;28;20019;-79
2021/07/02 11:02:19;;;;;;;2.83;2.63;;;22.80;61.00;;;;;;5091084;28;20028;-79
2021/07/02 11:04:47;;;;;;;3.00;2.20;;;22.60;59.80;;;;;;5091257;28;20020;-79
2021/07/02 11:07:19;;;;;;;2.88;2.67;;;22.30;58.30;;;;;;5093734;28;20036;-79
2021/07/02 11:09:54;;;;;;;3.38;2.40;;;22.30;58.50;;;;;;5092607;28;20055;-79
2021/07/02 11:12:31;;;;;;;2.80;2.20;;;22.50;58.80;;;;;;5091022;28;20037;-79
2021/07/02 11:15:08;;;;;;;2.70;2.40;;;22.80;58.90;;;;;;5092544;28;20476;-79
2021/07/02 11:18:10;;;;;;;2.92;2.50;;;22.40;58.90;;;;;;5094861;28;20381;-79
2021/07/02 11:20:36;;;;;;;2.80;2.50;;;22.40;59.70;;;;;;5094906;28;20040;-79
2021/07/02 11:23:01;;;;;;;2.42;1.95;;;22.20;60.00;;;;;;5096045;28;20036;-79
2021/07/02 11:25:49;;;;;;;2.20;2.10;;;22.30;60.30;;;;;;5094768;28;20111;-79
2021/07/02 11:28:21;;;;;;;2.63;2.42;;;22.40;60.90;;;;;;5095298;28;20430;-79
2021/07/02 11:30:50;;;;;;;5.95;2.80;;;22.20;59.70;;;;;;5095884;28;20024;-79
2021/07/02 11:33:18;;;;;;;2.67;2.42;;;22.30;59.60;;;;;;5109654;28;20027;-79
2021/07/02 11:36:05;;;;;;;3.05;2.10;;;22.20;60.30;;;;;;5115215;28;20016;-78
2021/07/02 11:38:31;;;;;;;2.50;2.30;;;22.30;59.80;;;;;;5115444;28;20026;-79
2021/07/02 11:41:01;;;;;;;2.50;2.30;;;22.40;59.70;;;;;;5115878;28;20392;-79
2021/07/02 11:43:34;;;;;;;3.72;2.20;;;22.60;60.00;;;;;;5115778;28;20048;-80
2021/07/02 11:46:05;;;;;;;2.78;2.58;;;23.00;60.00;;;;;;5113337;28;20027;-79
2021/07/02 11:48:33;;;;;;;2.88;2.67;;;23.30;58.90;;;;;;5113501;28;20474;-79
2021/07/02 11:51:01;;;;;;;2.53;2.33;;;23.40;57.80;;;;;;5113311;28;20440;-79
2021/07/02 11:53:38;;;;;;;2.88;2.35;;;23.40;58.40;;;;;;5113374;28;20007;-80
2021/07/02 11:56:18;;;;;;;3.17;2.88;;;23.60;57.20;;;;;;5111104;28;20945;-79
2021/07/02 11:58:58;;;;;;;3.22;2.78;;;23.80;56.90;;;;;;5110388;28;20019;-79
2021/07/02 12:01:40;;;;;;;2.53;2.33;;;23.20;58.20;;;;;;5113786;28;20023;-80
2021/07/02 12:04:10;;;;;;;4.13;2.30;;;22.90;58.50;;;;;;5114919;28;20404;-80
2021/07/02 12:06:42;;;;;;;4.13;2.72;;;23.00;58.90;;;;;;5111749;28;20019;-79
2021/07/02 12:09:12;;;;;;;2.85;2.65;;;23.00;57.80;;;;;;5112690;28;20034;-79
2021/07/02 12:11:42;;;;;;;3.33;3.08;;;23.00;57.70;;;;;;5114242;28;20028;-79
2021/07/02 12:14:13;;;;;;;3.65;3.35;;;23.20;56.80;;;;;;5113379;28;20376;-79
2021/07/02 12:16:41;;;;;;;3.35;3.05;;;23.20;58.00;;;;;;5108271;28;20042;-79
2021/07/02 12:19:16;;;;;;;2.85;2.65;;;23.10;58.50;;;;;;5109049;27;20132;-80
2021/07/02 12:22:00;;;;;;;5.50;3.13;;;23.10;58.30;;;;;;5111686;28;20024;-80
2021/07/02 12:24:28;;;;;;;3.30;2.35;;;23.40;58.30;;;;;;5112257;28;20095;-83
2021/07/02 12:26:59;;;;;;;2.60;2.40;;;23.40;56.70;;;;;;5113918;28;20020;-77
2021/07/02 12:29:26;;;;;;;2.47;2.38;;;23.40;56.90;;;;;;5114818;28;20043;-78
2021/07/02 12:32:00;;;;;;;2.22;2.10;;;23.20;56.50;;;;;;5113933;28;20020;-77
2021/07/02 12:34:35;;;;;;;2.78;2.10;;;23.10;56.10;;;;;;5099530;28;20031;-79
2021/07/02 12:37:21;;;;;;;3.25;2.17;;;23.10;55.30;;;;;;5093198;28;20031;-80
2021/07/02 12:39:53;;;;;;;1.98;1.88;;;23.20;54.70;;;;;;5092926;28;20024;-81
2021/07/02 12:42:19;;;;;;;2.50;2.30;;;23.20;54.60;;;;;;5097754;28;20032;-80
2021/07/02 12:44:54;;;;;;;2.20;1.90;;;23.20;53.90;;;;;;5105293;28;20027;-80
2021/07/02 12:47:21;;;;;;;2.65;2.40;;;23.20;53.00;;;;;;5106684;27;20031;-80
2021/07/02 12:50:00;;;;;;;2.67;2.20;;;23.10;53.80;;;;;;5101680;28;20020;-80
2021/07/02 12:54:57;;;;;;;2.67;2.47;;;23.20;55.20;;;;;;5103104;28;20537;-81
2021/07/02 12:57:26;;;;;;;2.42;2.33;;;23.20;56.60;;;;;;5104077;28;20024;-80
2021/07/02 13:00:11;;;;;;;2.95;2.67;;;23.10;56.60;;;;;;5103701;28;20016;-79